createdAt,value
2022-09-07T00:00:44.348Z,4.65
2022-09-07T00:03:11.618Z,4.15
2022-09-07T00:05:47.143Z,4.63
2022-09-07T00:08:15.911Z,4.43
2022-09-07T00:10:51.035Z,4.03
2022-09-07T00:13:18.244Z,4.28
2022-09-07T00:15:45.396Z,4.45
2022-09-07T00:18:12.576Z,4.10
2022-09-07T00:20:39.875Z,4.13
2022-09-07T00:23:07.285Z,4.22
2022-09-07T00:25:39.274Z,3.85
2022-09-07T00:28:08.274Z,4.43
2022-09-07T00:30:41.729Z,4.00
2022-09-07T00:33:09.725Z,4.43
2022-09-07T00:35:41.396Z,4.40
2022-09-07T00:38:09.087Z,4.53
2022-09-07T00:40:36.381Z,4.10
2022-09-07T00:43:04.349Z,4.20
2022-09-07T00:45:32.093Z,4.18
2022-09-07T00:47:59.885Z,4.10
2022-09-07T00:50:57.815Z,4.07
2022-09-07T00:53:43.589Z,4.28
2022-09-07T00:56:13.816Z,4.30
2022-09-07T00:58:43.609Z,3.97
2022-09-07T01:01:11.351Z,4.15
2022-09-07T01:03:43.947Z,3.67
2022-09-07T01:06:16.937Z,4.07
2022-09-07T01:08:47.533Z,3.70
2022-09-07T01:11:51.210Z,3.60
2022-09-07T01:14:29.254Z,3.65
2022-09-07T01:17:07.206Z,3.72
2022-09-07T01:19:53.712Z,3.15
2022-09-07T01:22:39.568Z,4.07
2022-09-07T01:25:32.492Z,3.85
2022-09-07T01:28:20.668Z,3.28
2022-09-07T01:31:09.163Z,3.90
2022-09-07T01:34:10.665Z,3.65
2022-09-07T01:36:48.210Z,3.30
2022-09-07T01:39:40.822Z,3.95
2022-09-07T01:42:14.957Z,3.65
2022-09-07T01:44:56.495Z,3.30
2022-09-07T01:47:48.643Z,3.47
2022-09-07T01:50:30.213Z,3.80
2022-09-07T01:53:15.373Z,3.83
2022-09-07T01:55:55.364Z,3.38
2022-09-07T01:58:39.713Z,3.63
2022-09-07T02:01:20.542Z,4.20
2022-09-07T02:04:02.355Z,3.20
2022-09-07T02:06:49.913Z,3.40
2022-09-07T02:09:32.046Z,3.50
2022-09-07T02:12:03.597Z,3.78
2022-09-07T02:14:46.508Z,3.55
2022-09-07T02:17:27.700Z,3.63
2022-09-07T02:20:10.253Z,3.42
2022-09-07T02:22:42.304Z,3.65
2022-09-07T02:25:13.363Z,3.22
2022-09-07T02:27:49.776Z,3.80
2022-09-07T02:30:17.761Z,4.32
2022-09-07T02:32:44.988Z,4.05
2022-09-07T02:35:12.466Z,3.70
2022-09-07T02:37:42.008Z,3.50
2022-09-07T02:40:09.856Z,4.00
2022-09-07T02:42:37.478Z,4.03
2022-09-07T02:45:08.409Z,3.47
2022-09-07T02:47:59.716Z,4.30
2022-09-07T02:50:34.564Z,3.10
2022-09-07T02:53:27.917Z,3.97
2022-09-07T02:56:25.346Z,4.25
2022-09-07T02:58:55.239Z,3.58
2022-09-07T03:01:43.620Z,3.70
2022-09-07T03:04:21.180Z,3.47
2022-09-07T03:07:03.304Z,3.47
2022-09-07T03:09:46.692Z,3.25
2022-09-07T03:12:14.475Z,3.85
2022-09-07T03:14:43.452Z,3.35
2022-09-07T03:17:10.877Z,3.60
2022-09-07T03:19:38.418Z,3.55
2022-09-07T03:22:06.520Z,3.50
2022-09-07T03:24:33.860Z,3.47
2022-09-07T03:27:01.019Z,3.03
2022-09-07T03:29:28.272Z,3.70
2022-09-07T03:31:55.344Z,3.20
2022-09-07T03:34:22.501Z,3.60
2022-09-07T03:36:49.574Z,5.10
2022-09-07T03:39:20.953Z,3.60
2022-09-07T03:41:48.395Z,3.35
2022-09-07T03:44:15.477Z,3.58
2022-09-07T03:46:42.692Z,3.35
2022-09-07T03:49:10.079Z,3.40
2022-09-07T03:51:37.316Z,3.67
2022-09-07T03:54:04.522Z,3.35
2022-09-07T03:56:31.734Z,3.40
2022-09-07T03:58:58.958Z,3.88
2022-09-07T04:01:27.486Z,3.45
2022-09-07T04:04:02.238Z,3.42
2022-09-07T04:06:30.949Z,3.25
2022-09-07T04:09:03.140Z,3.63
2022-09-07T04:11:30.397Z,3.38
2022-09-07T04:13:57.575Z,4.00
2022-09-07T04:16:26.661Z,3.40
2022-09-07T04:18:59.337Z,3.45
2022-09-07T04:21:31.827Z,3.25
2022-09-07T04:23:59.346Z,3.50
2022-09-07T04:26:28.846Z,3.72
2022-09-07T04:28:56.043Z,3.17
2022-09-07T04:31:24.163Z,3.50
2022-09-07T04:33:52.221Z,3.38
2022-09-07T04:36:20.421Z,3.47
2022-09-07T04:38:48.152Z,3.65
2022-09-07T04:41:17.439Z,3.08
2022-09-07T04:43:45.868Z,3.70
2022-09-07T04:46:16.016Z,3.25
2022-09-07T04:48:43.119Z,3.50
2022-09-07T04:51:11.570Z,3.25
2022-09-07T04:53:39.125Z,3.42
2022-09-07T04:56:06.561Z,3.67
2022-09-07T04:58:33.720Z,3.80
2022-09-07T05:01:02.454Z,3.20
2022-09-07T05:03:31.623Z,3.08
2022-09-07T05:06:01.860Z,3.20
2022-09-07T05:08:29.411Z,2.90
2022-09-07T05:10:59.768Z,3.13
2022-09-07T05:13:26.923Z,3.58
2022-09-07T05:15:54.029Z,3.30
2022-09-07T05:18:21.379Z,3.42
2022-09-07T05:20:48.643Z,3.35
2022-09-07T05:23:15.822Z,3.30
2022-09-07T05:25:44.979Z,3.28
2022-09-07T05:28:18.635Z,3.10
2022-09-07T05:36:22.831Z,4.10
2022-09-07T05:38:49.949Z,2.92
2022-09-07T05:41:19.655Z,3.70
2022-09-07T05:46:36.406Z,3.95
2022-09-07T05:49:04.191Z,3.65
2022-09-07T05:51:31.266Z,3.20
2022-09-07T05:53:58.747Z,3.30
2022-09-07T05:56:26.365Z,3.88
2022-09-07T05:58:53.456Z,3.60
2022-09-07T06:01:20.820Z,3.50
2022-09-07T06:03:47.957Z,3.10
2022-09-07T06:06:18.951Z,3.40
2022-09-07T06:08:49.249Z,3.88
2022-09-07T06:11:22.364Z,3.42
2022-09-07T06:13:50.060Z,3.22
2022-09-07T06:16:18.769Z,3.67
2022-09-07T06:18:47.555Z,3.60
2022-09-07T06:21:17.926Z,3.40
2022-09-07T06:23:45.795Z,3.42
2022-09-07T06:26:14.181Z,3.63
2022-09-07T06:28:43.718Z,3.42
2022-09-07T06:31:13.688Z,3.80
2022-09-07T06:33:42.834Z,3.40
2022-09-07T06:36:24.349Z,3.72
2022-09-07T06:38:52.182Z,4.07
2022-09-07T06:44:08.663Z,3.85
2022-09-07T06:49:23.861Z,4.28
2022-09-07T06:51:50.950Z,4.25
2022-09-07T06:57:09.250Z,4.00
2022-09-07T06:59:38.016Z,4.88
2022-09-07T07:02:06.504Z,3.58
2022-09-07T07:04:39.366Z,4.43
2022-09-07T07:09:39.288Z,3.70
2022-09-07T07:12:06.461Z,3.80
2022-09-07T07:14:35.482Z,4.00
2022-09-07T07:17:03.655Z,4.43
2022-09-07T07:19:30.824Z,4.07
2022-09-07T07:24:45.028Z,4.50
2022-09-07T07:27:12.112Z,4.55
2022-09-07T07:29:40.532Z,3.65
2022-09-07T07:32:19.966Z,4.15
2022-09-07T07:34:47.169Z,4.60
2022-09-07T07:37:15.979Z,4.40
2022-09-07T07:42:30.213Z,4.63
2022-09-07T07:47:51.297Z,4.70
2022-09-07T07:50:34.390Z,5.22
2022-09-07T07:55:49.312Z,4.75
2022-09-07T07:58:16.369Z,4.70
2022-09-07T08:00:54.296Z,4.97
2022-09-07T08:03:23.432Z,4.05
2022-09-07T08:05:50.841Z,4.65
2022-09-07T08:08:18.634Z,4.78
2022-09-07T08:10:47.366Z,4.90
2022-09-07T08:13:15.853Z,4.82
2022-09-07T08:15:46.621Z,5.60
2022-09-07T08:18:15.797Z,4.95
2022-09-07T08:20:43.252Z,5.10
2022-09-07T08:23:10.810Z,4.47
2022-09-07T08:25:38.032Z,5.35
2022-09-07T08:28:05.557Z,5.10
2022-09-07T08:30:32.610Z,4.93
2022-09-07T08:32:59.736Z,5.13
2022-09-07T08:35:26.829Z,4.35
2022-09-07T08:37:54.481Z,4.70
2022-09-07T08:40:21.590Z,4.97
2022-09-07T08:43:01.013Z,5.45
2022-09-07T08:45:33.698Z,5.78
2022-09-07T08:48:05.287Z,4.95
2022-09-07T08:50:42.013Z,5.72
2022-09-07T08:53:16.927Z,5.43
2022-09-07T08:55:50.866Z,5.68
2022-09-07T08:58:47.684Z,6.18
2022-09-07T09:01:32.514Z,6.03
2022-09-07T09:04:17.570Z,5.72
2022-09-07T09:07:09.925Z,5.40
2022-09-07T09:10:07.314Z,5.15
2022-09-07T09:13:01.540Z,5.68
2022-09-07T09:15:54.890Z,6.28
2022-09-07T09:18:37.063Z,6.70
2022-09-07T09:21:07.947Z,5.80
2022-09-07T09:23:40.294Z,5.88
2022-09-07T09:26:10.144Z,6.20
2022-09-07T09:28:38.450Z,6.35
2022-09-07T09:31:06.007Z,5.35
2022-09-07T09:33:33.130Z,6.03
2022-09-07T09:36:02.556Z,5.47
2022-09-07T09:38:39.692Z,5.18
2022-09-07T09:41:15.144Z,5.53
2022-09-07T09:44:17.833Z,5.53
2022-09-07T09:49:41.193Z,5.80
2022-09-07T09:52:29.910Z,5.97
2022-09-07T09:55:34.409Z,6.00
2022-09-07T10:03:58.439Z,5.93
2022-09-07T10:06:30.049Z,5.35
2022-09-07T10:08:59.489Z,5.93
2022-09-07T10:14:35.212Z,5.63
2022-09-07T10:17:18.191Z,5.85
2022-09-07T10:19:45.651Z,5.63
2022-09-07T10:22:32.892Z,5.63
2022-09-07T10:25:04.031Z,5.80
2022-09-07T10:27:37.716Z,5.60
2022-09-07T10:30:15.167Z,6.10
2022-09-07T10:33:12.874Z,5.78
2022-09-07T10:35:52.925Z,5.60
2022-09-07T10:39:37.414Z,6.28
2022-09-07T10:42:29.472Z,6.07
2022-09-07T10:45:32.011Z,5.65
2022-09-07T10:48:29.657Z,6.03
2022-09-07T10:51:47.365Z,6.05
2022-09-07T10:54:46.811Z,5.93
2022-09-07T10:57:54.017Z,6.07
2022-09-07T11:00:23.121Z,5.72
2022-09-07T11:03:27.383Z,6.22
2022-09-07T11:06:35.205Z,5.80
2022-09-07T11:09:25.634Z,5.50
2022-09-07T11:12:05.729Z,5.90
2022-09-07T11:14:44.793Z,6.82
2022-09-07T11:17:18.806Z,5.70
2022-09-07T11:20:17.934Z,5.70
2022-09-07T11:23:06.034Z,6.32
2022-09-07T11:25:46.716Z,6.20
2022-09-07T11:32:19.156Z,5.82
2022-09-07T11:34:52.091Z,5.78
2022-09-07T11:37:54.761Z,5.22
2022-09-07T11:40:35.407Z,6.10
2022-09-07T11:43:23.854Z,5.97
2022-09-07T11:46:24.901Z,5.40
2022-09-07T11:49:23.770Z,6.18
2022-09-07T11:52:05.021Z,5.53
2022-09-07T11:55:39.620Z,5.35
2022-09-07T11:58:34.528Z,5.78
2022-09-07T12:01:13.237Z,6.32
2022-09-07T12:03:49.347Z,5.72
2022-09-07T12:07:12.138Z,6.35
2022-09-07T12:09:48.124Z,5.30
2022-09-07T12:12:49.288Z,5.65
2022-09-07T12:15:16.369Z,6.03
2022-09-07T12:18:25.029Z,5.75
2022-09-07T12:20:52.172Z,6.03
2022-09-07T12:23:29.799Z,6.10
2022-09-07T12:26:34.227Z,5.80
2022-09-07T12:29:29.677Z,5.78
2022-09-07T12:32:52.421Z,5.50
2022-09-07T12:34:54.258Z,5.68
2022-09-07T12:37:27.518Z,5.63
2022-09-07T12:40:29.291Z,5.53
2022-09-07T12:43:14.631Z,5.45
2022-09-07T12:45:42.426Z,5.40
2022-09-07T12:48:15.767Z,5.60
2022-09-07T12:51:04.056Z,5.40
2022-09-07T12:53:57.439Z,6.18
2022-09-07T12:56:46.642Z,6.13
2022-09-07T13:00:23.313Z,5.65
2022-09-07T13:06:16.114Z,5.72
2022-09-07T13:08:58.466Z,5.82
2022-09-07T13:11:38.235Z,5.45
2022-09-07T13:14:15.686Z,5.88
2022-09-07T13:19:50.909Z,5.10
2022-09-07T13:22:33.552Z,5.10
2022-09-07T13:25:27.255Z,5.40
2022-09-07T13:28:06.076Z,5.43
2022-09-07T13:31:01.189Z,5.75
2022-09-07T13:33:28.407Z,5.50
2022-09-07T13:36:03.222Z,5.93
2022-09-07T13:38:32.504Z,5.93
2022-09-07T13:41:15.454Z,6.03
2022-09-07T13:43:48.528Z,5.90
2022-09-07T13:46:40.603Z,5.32
2022-09-07T13:49:34.639Z,5.13
2022-09-07T13:52:22.514Z,5.37
2022-09-07T13:55:34.214Z,5.28
2022-09-07T13:58:18.124Z,5.70
2022-09-07T14:00:54.198Z,5.95
2022-09-07T14:03:25.793Z,5.53
2022-09-07T14:06:14.859Z,5.47
2022-09-07T14:08:57.039Z,5.43
2022-09-07T14:11:40.393Z,6.25
2022-09-07T14:14:47.239Z,6.32
2022-09-07T14:17:18.210Z,5.55
2022-09-07T14:19:50.242Z,5.78
2022-09-07T14:22:23.405Z,6.07
2022-09-07T14:25:08.413Z,6.35
2022-09-07T14:27:41.500Z,5.65
2022-09-07T14:30:15.844Z,5.88
2022-09-07T14:32:43.993Z,6.00
2022-09-07T14:35:26.165Z,6.25
2022-09-07T14:37:54.002Z,5.45
2022-09-07T14:40:26.234Z,5.50
2022-09-07T14:42:55.907Z,5.25
2022-09-07T14:45:22.873Z,5.53
2022-09-07T14:47:54.323Z,6.18
2022-09-07T14:50:41.199Z,5.43
2022-09-07T14:53:34.821Z,5.32
2022-09-07T14:56:08.574Z,6.03
2022-09-07T14:58:36.831Z,5.50
2022-09-07T15:04:03.006Z,5.70
2022-09-07T15:10:17.437Z,6.20
2022-09-07T15:12:51.484Z,4.47
2022-09-07T15:15:46.817Z,5.13
2022-09-07T15:18:46.434Z,5.03
2022-09-07T15:21:43.795Z,5.20
2022-09-07T15:24:11.859Z,7.07
2022-09-07T15:27:03.381Z,7.28
2022-09-07T15:29:31.599Z,5.70
2022-09-07T15:32:04.943Z,6.63
2022-09-07T15:34:34.910Z,6.68
2022-09-07T15:37:03.657Z,7.00
2022-09-07T15:39:31.586Z,6.93
2022-09-07T15:42:00.522Z,6.20
2022-09-07T15:44:46.993Z,6.57
2022-09-07T15:50:01.425Z,6.85
2022-09-07T15:52:31.277Z,6.93
2022-09-07T15:54:59.574Z,6.55
2022-09-07T16:00:14.620Z,13.38
2022-09-07T16:05:31.227Z,9.93
2022-09-07T16:11:05.447Z,8.70
2022-09-07T16:13:35.800Z,8.02
2022-09-07T16:16:05.827Z,9.38
2022-09-07T16:18:38.627Z,8.10
2022-09-07T16:21:11.780Z,8.03
2022-09-07T16:23:42.307Z,6.60
2022-09-07T16:26:13.073Z,8.27
2022-09-07T16:28:47.176Z,7.93
2022-09-07T16:31:18.327Z,8.20
2022-09-07T16:33:45.466Z,9.50
2022-09-07T16:36:15.971Z,7.85
2022-09-07T16:38:46.016Z,8.75
2022-09-07T16:41:17.739Z,8.73
2022-09-07T16:43:46.082Z,8.00
2022-09-07T16:46:15.654Z,8.02
2022-09-07T16:48:44.109Z,8.38
2022-09-07T16:51:16.371Z,8.85
2022-09-07T16:53:43.843Z,8.75
2022-09-07T16:56:13.663Z,8.27
2022-09-07T16:58:49.573Z,7.97
2022-09-07T17:01:21.642Z,8.10
2022-09-07T17:03:51.675Z,9.02
2022-09-07T17:06:20.875Z,10.13
2022-09-07T17:08:48.220Z,8.40
2022-09-07T17:11:20.700Z,8.25
2022-09-07T17:13:48.350Z,9.70
2022-09-07T17:16:21.292Z,8.82
2022-09-07T17:21:39.190Z,8.80
2022-09-07T17:24:08.061Z,9.30
2022-09-07T17:26:35.157Z,8.38
2022-09-07T17:29:02.697Z,8.55
2022-09-07T17:34:20.827Z,8.75
2022-09-07T17:36:48.323Z,8.55
2022-09-07T17:39:17.784Z,8.02
2022-09-07T17:41:46.816Z,8.13
2022-09-07T17:44:15.212Z,8.32
2022-09-07T17:55:38.796Z,8.82
2022-09-07T17:58:05.913Z,9.80
2022-09-07T18:00:34.536Z,9.07
2022-09-07T18:07:44.356Z,9.27
2022-09-07T18:10:11.547Z,9.63
2022-09-07T18:12:39.038Z,10.20
2022-09-07T18:15:21.482Z,10.18
2022-09-07T18:17:48.558Z,10.48
2022-09-07T18:20:15.718Z,10.70
2022-09-07T18:22:46.210Z,9.90
2022-09-07T18:25:13.348Z,9.75
2022-09-07T18:27:40.729Z,9.65
2022-09-07T18:30:09.474Z,11.38
2022-09-07T18:32:36.573Z,11.02
2022-09-07T18:35:03.725Z,10.18
2022-09-07T18:38:07.096Z,10.02
2022-09-07T18:40:38.229Z,9.73
2022-09-07T18:43:29.288Z,9.88
2022-09-07T18:46:21.357Z,10.55
2022-09-07T18:48:49.148Z,9.73
2022-09-07T18:51:17.113Z,10.20
2022-09-07T18:53:44.168Z,10.70
2022-09-07T18:56:16.616Z,9.15
2022-09-07T18:58:45.533Z,10.95
2022-09-07T19:01:29.036Z,10.23
2022-09-07T19:03:57.513Z,10.10
2022-09-07T19:06:25.703Z,11.00
2022-09-07T19:08:54.170Z,9.32
2022-09-07T19:11:26.650Z,10.13
2022-09-07T19:17:58.298Z,9.75
2022-09-07T19:20:26.198Z,9.30
2022-09-07T19:23:22.309Z,10.52
2022-09-07T19:25:49.423Z,11.35
2022-09-07T19:28:19.197Z,11.95
2022-09-07T19:31:01.310Z,12.07
2022-09-07T19:33:28.525Z,11.52
2022-09-07T19:35:56.599Z,12.27
2022-09-07T19:38:24.146Z,11.73
2022-09-07T19:41:13.076Z,11.70
2022-09-07T19:43:40.204Z,10.73
2022-09-07T19:46:07.352Z,12.25
2022-09-07T19:48:39.342Z,12.65
2022-09-07T19:51:08.504Z,11.15
2022-09-07T19:56:29.274Z,10.57
2022-09-07T19:58:56.378Z,11.82
2022-09-07T20:01:26.258Z,12.00
2022-09-07T20:04:08.493Z,10.93
2022-09-07T20:06:56.689Z,13.02
2022-09-07T20:09:24.915Z,12.45
2022-09-07T20:11:52.272Z,12.45
2022-09-07T20:14:20.785Z,11.32
2022-09-07T20:16:48.086Z,10.52
2022-09-07T20:19:15.392Z,10.30
2022-09-07T20:21:43.260Z,10.85
2022-09-07T20:24:14.775Z,10.63
2022-09-07T20:26:42.218Z,9.00
2022-09-07T20:32:00.245Z,9.70
2022-09-07T20:34:28.481Z,9.93
2022-09-07T20:36:56.902Z,9.85
2022-09-07T20:39:24.340Z,9.07
2022-09-07T20:41:51.723Z,10.68
2022-09-07T20:44:19.056Z,9.70
2022-09-07T20:46:46.224Z,10.55
2022-09-07T20:49:13.438Z,8.68
2022-09-07T20:51:40.545Z,9.27
2022-09-07T20:54:07.820Z,9.70
2022-09-07T20:56:35.229Z,9.48
2022-09-07T20:59:03.292Z,9.50
2022-09-07T21:01:32.294Z,9.18
2022-09-07T21:04:08.021Z,9.15
2022-09-07T21:06:35.649Z,10.32
2022-09-07T21:09:03.014Z,9.82
2022-09-07T21:11:32.557Z,10.60
2022-09-07T21:14:01.988Z,9.40
2022-09-07T21:16:29.881Z,10.73
2022-09-07T21:19:00.719Z,10.35
2022-09-07T21:21:29.892Z,9.95
2022-09-07T21:23:59.628Z,10.30
2022-09-07T21:26:30.985Z,10.35
2022-09-07T21:29:00.692Z,9.30
2022-09-07T21:31:29.676Z,9.43
2022-09-07T21:33:58.980Z,9.40
2022-09-07T21:36:27.001Z,9.65
2022-09-07T21:38:54.686Z,9.63
2022-09-07T21:41:24.194Z,9.57
2022-09-07T21:43:56.101Z,10.38
2022-09-07T21:46:23.568Z,9.65
2022-09-07T21:48:52.660Z,10.77
2022-09-07T21:51:19.784Z,9.63
2022-09-07T21:53:55.311Z,9.93
2022-09-07T21:56:23.230Z,9.70
2022-09-07T21:59:01.311Z,9.85
2022-09-07T22:01:30.345Z,10.23
2022-09-07T22:03:59.720Z,9.70
2022-09-07T22:06:28.099Z,10.77
2022-09-07T22:08:56.025Z,10.32
2022-09-07T22:11:24.775Z,10.02
2022-09-07T22:13:59.817Z,11.27
2022-09-07T22:16:27.162Z,11.07
2022-09-07T22:18:54.802Z,10.90
2022-09-07T22:21:25.234Z,11.10
2022-09-07T22:23:57.157Z,10.07
2022-09-07T22:26:27.704Z,10.55
2022-09-07T22:28:58.857Z,10.32
2022-09-07T22:31:30.699Z,9.57
2022-09-07T22:33:59.498Z,10.43
2022-09-07T22:36:31.006Z,10.77
2022-09-07T22:39:24.513Z,10.25
2022-09-07T22:41:51.614Z,9.85
2022-09-07T22:44:18.883Z,10.30
2022-09-07T22:46:48.531Z,10.60
2022-09-07T22:49:17.188Z,10.07
2022-09-07T22:51:45.356Z,10.48
2022-09-07T22:54:13.407Z,11.02
2022-09-07T22:56:40.907Z,10.02
2022-09-07T22:59:09.421Z,10.05
2022-09-07T23:01:39.136Z,10.63
2022-09-07T23:04:07.612Z,10.35
2022-09-07T23:06:40.209Z,10.82
2022-09-07T23:09:11.033Z,10.13
2022-09-07T23:11:39.770Z,11.82
2022-09-07T23:14:11.784Z,11.55
2022-09-07T23:16:39.285Z,11.30
2022-09-07T23:19:07.034Z,10.48
2022-09-07T23:21:34.220Z,11.25
2022-09-07T23:24:01.769Z,10.75
2022-09-07T23:26:31.389Z,10.75
2022-09-07T23:29:02.433Z,10.85
2022-09-07T23:31:32.349Z,10.88
2022-09-07T23:34:00.354Z,11.13
2022-09-07T23:36:28.355Z,12.02
2022-09-07T23:38:57.484Z,11.15
2022-09-07T23:41:25.202Z,11.93
2022-09-07T23:43:53.718Z,11.60
2022-09-07T23:46:21.357Z,11.63
2022-09-07T23:48:49.275Z,11.70
2022-09-07T23:51:22.792Z,11.93
2022-09-07T23:53:51.388Z,13.95
2022-09-07T23:56:20.163Z,12.52
2022-09-07T23:58:47.590Z,12.32
